Time;durP1;ratioP1;P1;durP2;ratioP2;P2;SDS_P1;SDS_P2;PMS_P1;PMS_P2;Temp;Humidity;BMP_temperature;BMP_pressure;BME280_temperature;BME280_humidity;BME280_pressure;Samples;Min_cycle;Max_cycle;Signal;HPM_P1;HPM_P2
2021/11/06 00:00:43;;;;;;;95.13;39.08;;;15.50;93.50;;;;;;5057264;28;20017;-36
2021/11/06 00:03:10;;;;;;;81.45;38.00;;;15.50;93.50;;;;;;5056637;28;20025;-37
2021/11/06 00:05:36;;;;;;;98.30;41.40;;;15.50;93.40;;;;;;5057132;28;20029;-36
2021/11/06 00:08:02;;;;;;;95.53;38.55;;;15.40;93.40;;;;;;5056261;28;20040;-36
2021/11/06 00:10:28;;;;;;;95.97;40.97;;;15.40;93.40;;;;;;5057009;28;20361;-36
2021/11/06 00:12:54;;;;;;;84.35;39.15;;;15.50;93.40;;;;;;5056458;28;20076;-36
2021/11/06 00:15:20;;;;;;;85.10;37.88;;;15.50;93.50;;;;;;5055937;28;20060;-38
2021/11/06 00:17:45;;;;;;;97.50;41.85;;;15.50;93.50;;;;;;5056526;28;20040;-37
2021/11/06 00:20:13;;;;;;;104.47;42.10;;;15.50;93.50;;;;;;5056827;28;20032;-37
2021/11/06 00:22:39;;;;;;;95.40;40.80;;;15.50;93.50;;;;;;5056407;28;20029;-37
2021/11/06 00:25:06;;;;;;;105.63;41.75;;;15.50;93.40;;;;;;5056711;28;20360;-36
2021/11/06 00:27:33;;;;;;;96.75;40.10;;;15.50;93.40;;;;;;5055995;28;20040;-36
2021/11/06 00:29:58;;;;;;;88.82;39.95;;;15.50;93.40;;;;;;5056663;28;20029;-37
2021/11/06 00:32:24;;;;;;;93.80;39.25;;;15.50;93.40;;;;;;5056182;28;20029;-37
2021/11/06 00:34:51;;;;;;;84.03;37.92;;;15.50;93.30;;;;;;5056481;28;20397;-37
2021/11/06 00:37:17;;;;;;;104.97;42.85;;;15.50;93.30;;;;;;5056167;28;20033;-36
2021/11/06 00:39:43;;;;;;;88.63;37.03;;;15.50;93.30;;;;;;5056443;28;20033;-39
2021/11/06 00:42:08;;;;;;;101.78;40.20;;;15.50;93.40;;;;;;5055772;28;20132;-36
2021/11/06 00:44:34;;;;;;;93.95;39.70;;;15.50;93.30;;;;;;5056179;28;20073;-37
2021/11/06 00:47:00;;;;;;;96.88;39.35;;;15.50;93.30;;;;;;5056026;28;20082;-37
2021/11/06 00:49:26;;;;;;;95.10;40.47;;;15.50;93.20;;;;;;5056374;28;20040;-36
2021/11/06 00:51:51;;;;;;;93.78;38.08;;;15.50;93.10;;;;;;5055435;28;20372;-36
2021/11/06 00:54:17;;;;;;;99.65;39.47;;;15.50;93.20;;;;;;5055653;28;20029;-36
2021/11/06 00:56:43;;;;;;;82.70;37.30;;;15.50;93.20;;;;;;5055508;28;20094;-36
2021/11/06 00:59:09;;;;;;;95.80;41.15;;;15.50;93.20;;;;;;5056145;28;20045;-36
2021/11/06 01:01:36;;;;;;;98.45;40.88;;;15.50;93.20;;;;;;5055427;28;20417;-36
2021/11/06 01:04:04;;;;;;;105.32;42.00;;;15.50;93.20;;;;;;5055907;28;20041;-38
2021/11/06 01:06:30;;;;;;;88.35;37.30;;;15.40;93.20;;;;;;5055286;28;20065;-38
2021/11/06 01:08:56;;;;;;;109.53;40.05;;;15.50;93.30;;;;;;5056059;28;20040;-38
2021/11/06 01:11:21;;;;;;;95.82;40.22;;;15.40;93.30;;;;;;5055273;28;20321;-38
2021/11/06 01:13:47;;;;;;;103.55;39.28;;;15.50;93.30;;;;;;5055789;28;20033;-37
2021/11/06 01:16:13;;;;;;;101.57;41.08;;;15.50;93.30;;;;;;5055421;28;20036;-37
2021/11/06 01:18:39;;;;;;;100.38;41.13;;;15.40;93.30;;;;;;5055567;28;20076;-36
2021/11/06 01:21:04;;;;;;;100.43;38.47;;;15.40;93.40;;;;;;5055419;28;20429;-36
2021/11/06 01:23:30;;;;;;;100.18;38.95;;;15.50;93.60;;;;;;5055524;28;20029;-36
2021/11/06 01:25:56;;;;;;;106.53;39.60;;;15.40;93.30;;;;;;5055725;28;20017;-36
2021/11/06 01:28:22;;;;;;;123.78;42.00;;;15.50;93.40;;;;;;5059283;28;20021;-37
2021/11/06 01:30:47;;;;;;;104.65;41.22;;;15.40;93.30;;;;;;5059893;28;20056;-37
2021/11/06 01:33:13;;;;;;;108.10;39.78;;;15.40;93.40;;;;;;5059015;28;20295;-36
2021/11/06 01:35:39;;;;;;;104.38;40.35;;;15.50;93.40;;;;;;5059792;28;20036;-36
2021/11/06 01:38:04;;;;;;;101.03;39.25;;;15.40;93.40;;;;;;5059582;28;20455;-38
2021/11/06 01:40:30;;;;;;;105.50;38.20;;;15.40;93.40;;;;;;5059785;28;20128;-36
2021/11/06 01:42:56;;;;;;;121.50;43.17;;;15.50;93.50;;;;;;5059508;28;20032;-36
2021/11/06 01:45:23;;;;;;;110.68;41.50;;;15.40;93.40;;;;;;5059867;28;20036;-36
2021/11/06 01:47:49;;;;;;;120.32;43.75;;;15.50;93.30;;;;;;5058980;28;20302;-36
2021/11/06 01:50:16;;;;;;;101.82;38.65;;;15.40;93.30;;;;;;5059769;28;20036;-36
2021/11/06 01:52:42;;;;;;;128.02;43.38;;;15.40;93.30;;;;;;5058962;28;20025;-36
2021/11/06 01:55:08;;;;;;;107.35;40.35;;;15.40;93.40;;;;;;5059114;28;20051;-36
2021/11/06 01:57:34;;;;;;;126.80;44.65;;;15.40;93.50;;;;;;5059011;28;20033;-36
2021/11/06 02:00:04;;;;;;;107.45;39.30;;;15.40;93.50;;;;;;5059148;28;20045;-36
2021/11/06 02:02:31;;;;;;;137.02;43.53;;;15.40;93.60;;;;;;5059064;28;20079;-36
2021/11/06 02:04:56;;;;;;;134.90;43.30;;;15.40;93.50;;;;;;5059454;28;20037;-37
2021/11/06 02:07:22;;;;;;;150.38;45.25;;;15.40;93.60;;;;;;5058635;28;20099;-36
2021/11/06 02:09:48;;;;;;;110.53;40.03;;;15.40;93.60;;;;;;5059295;28;20029;-37
2021/11/06 02:12:13;;;;;;;110.43;39.85;;;15.40;93.70;;;;;;5058601;28;20021;-37
2021/11/06 02:14:39;;;;;;;102.32;39.15;;;15.40;93.60;;;;;;5059174;28;20079;-36
2021/11/06 02:17:05;;;;;;;110.13;44.17;;;15.40;93.60;;;;;;5058527;28;20471;-36
2021/11/06 02:19:32;;;;;;;90.78;40.45;;;15.40;93.60;;;;;;5058956;28;20072;-36
2021/11/06 02:22:00;;;;;;;80.85;39.47;;;15.50;93.60;;;;;;5058359;28;20111;-36
2021/11/06 02:24:27;;;;;;;72.82;36.17;;;15.50;93.40;;;;;;5058692;28;20041;-37
2021/11/06 02:26:53;;;;;;;74.50;36.17;;;15.40;93.30;;;;;;5058213;28;20111;-38
2021/11/06 02:29:19;;;;;;;69.30;34.95;;;15.40;93.20;;;;;;5058769;28;20086;-36
2021/11/06 02:31:45;;;;;;;59.25;32.42;;;15.40;93.10;;;;;;5058130;28;20041;-36
2021/11/06 02:34:11;;;;;;;62.05;32.08;;;15.40;93.00;;;;;;5058607;28;20033;-37
2021/11/06 02:36:38;;;;;;;52.30;29.60;;;15.40;92.60;;;;;;5058075;28;20048;-36
2021/11/06 02:39:06;;;;;;;52.17;27.85;;;15.40;92.40;;;;;;5057422;28;20040;-36
2021/11/06 02:41:32;;;;;;;51.25;28.23;;;15.40;92.10;;;;;;5057977;28;20029;-36
2021/11/06 02:44:04;;;;;;;48.00;24.67;;;15.30;92.00;;;;;;5058416;28;20306;-37
2021/11/06 02:46:30;;;;;;;43.70;24.10;;;15.30;91.70;;;;;;5057910;28;20021;-36
2021/11/06 02:48:56;;;;;;;39.92;21.90;;;15.20;91.50;;;;;;5058621;28;20329;-36
2021/11/06 02:51:21;;;;;;;36.35;21.85;;;15.20;91.20;;;;;;5057759;28;20027;-37
2021/11/06 02:53:47;;;;;;;33.35;20.55;;;15.20;90.90;;;;;;5058395;28;20033;-37
2021/11/06 02:56:12;;;;;;;29.98;19.38;;;15.10;90.40;;;;;;5057582;28;20049;-38
2021/11/06 02:58:38;;;;;;;28.77;18.08;;;15.10;90.40;;;;;;5057986;28;20037;-37
2021/11/06 03:01:04;;;;;;;26.73;17.33;;;15.10;90.20;;;;;;5058053;28;20025;-37
2021/11/06 03:03:29;;;;;;;31.67;18.60;;;15.00;90.00;;;;;;5058110;28;20291;-38
2021/11/06 03:05:55;;;;;;;29.30;16.70;;;15.00;89.60;;;;;;5057995;28;20045;-38
2021/11/06 03:08:21;;;;;;;30.35;17.85;;;15.00;88.70;;;;;;5057478;28;20085;-37
2021/11/06 03:10:46;;;;;;;27.48;16.73;;;15.00;88.70;;;;;;5057835;28;20284;-36
2021/11/06 03:13:12;;;;;;;30.27;15.82;;;14.90;87.90;;;;;;5056266;28;20029;-36
2021/11/06 03:15:38;;;;;;;29.08;16.52;;;14.80;87.70;;;;;;5056549;28;20029;-36
2021/11/06 03:18:04;;;;;;;25.15;16.00;;;14.80;87.20;;;;;;5057489;28;20318;-37
2021/11/06 03:20:30;;;;;;;30.77;16.95;;;14.80;87.10;;;;;;5058064;28;20029;-37
2021/11/06 03:22:59;;;;;;;23.48;14.95;;;14.70;87.00;;;;;;5056283;28;20040;-38
2021/11/06 03:25:28;;;;;;;27.60;15.07;;;14.70;86.60;;;;;;5056763;28;20040;-36
2021/11/06 03:27:54;;;;;;;21.02;13.65;;;14.70;86.20;;;;;;5057489;28;20424;-36
2021/11/06 03:30:20;;;;;;;29.40;17.60;;;14.60;85.60;;;;;;5057956;28;20021;-37
2021/11/06 03:32:46;;;;;;;19.77;12.70;;;14.60;85.30;;;;;;5057211;28;20024;-36
2021/11/06 03:35:11;;;;;;;23.17;12.95;;;14.50;84.60;;;;;;5057836;28;20021;-37
2021/11/06 03:37:37;;;;;;;22.05;12.55;;;14.50;84.70;;;;;;5056903;28;20441;-36
2021/11/06 03:40:05;;;;;;;15.18;10.57;;;14.40;84.30;;;;;;5056323;28;20360;-36
2021/11/06 03:42:30;;;;;;;17.95;10.35;;;14.40;83.40;;;;;;5057113;28;20403;-36
2021/11/06 03:44:56;;;;;;;15.20;9.15;;;14.30;82.90;;;;;;5057583;28;20053;-37
2021/11/06 03:47:22;;;;;;;21.65;9.45;;;14.30;82.70;;;;;;5056782;28;20033;-36
2021/11/06 03:49:48;;;;;;;13.32;8.60;;;14.20;82.10;;;;;;5057014;28;20025;-37
2021/11/06 03:52:14;;;;;;;13.57;7.53;;;14.20;81.90;;;;;;5055924;28;20021;-35
2021/11/06 03:54:42;;;;;;;10.88;7.60;;;14.10;81.60;;;;;;5056716;28;20449;-37
2021/11/06 03:57:08;;;;;;;12.88;7.60;;;14.00;81.90;;;;;;5057050;28;20029;-37
2021/11/06 03:59:34;;;;;;;13.73;7.78;;;13.90;82.00;;;;;;5057106;28;20064;-36
2021/11/06 04:01:59;;;;;;;9.60;6.78;;;13.80;82.20;;;;;;5056641;28;20025;-36
2021/11/06 04:04:25;;;;;;;11.77;6.43;;;13.60;82.00;;;;;;5057022;28;20029;-35
2021/11/06 04:06:51;;;;;;;9.25;6.22;;;13.50;81.90;;;;;;5056377;28;20021;-37
2021/11/06 04:09:16;;;;;;;12.30;6.00;;;13.40;81.40;;;;;;5057052;28;20082;-35
2021/11/06 04:11:42;;;;;;;12.25;6.55;;;13.20;81.50;;;;;;5056247;28;20482;-35
2021/11/06 04:14:08;;;;;;;11.07;6.40;;;13.10;81.60;;;;;;5056825;28;20035;-36
2021/11/06 04:16:33;;;;;;;11.15;6.90;;;12.90;81.80;;;;;;5056471;28;20051;-35
2021/11/06 04:18:59;;;;;;;11.93;6.70;;;12.80;82.40;;;;;;5056925;28;20033;-35
2021/11/06 04:21:25;;;;;;;11.90;6.68;;;12.70;82.90;;;;;;5056170;28;20463;-35
2021/11/06 04:23:50;;;;;;;8.60;6.03;;;12.60;82.90;;;;;;5056343;28;20125;-35
2021/11/06 04:26:16;;;;;;;9.98;6.32;;;12.50;83.00;;;;;;5056028;28;20069;-36
2021/11/06 04:28:41;;;;;;;9.68;6.63;;;12.40;83.00;;;;;;5056397;28;20029;-35
2021/11/06 04:31:07;;;;;;;9.00;5.90;;;12.30;83.20;;;;;;5055970;28;20028;-35
2021/11/06 04:33:33;;;;;;;9.38;5.82;;;12.20;82.60;;;;;;5056072;28;20064;-36
2021/11/06 04:35:58;;;;;;;7.68;5.80;;;12.10;82.30;;;;;;5056260;28;20028;-37
2021/11/06 04:38:24;;;;;;;7.97;5.35;;;12.10;82.20;;;;;;5055790;28;20024;-36
2021/11/06 04:40:50;;;;;;;8.85;5.03;;;12.00;82.30;;;;;;5056192;28;20125;-38
2021/11/06 04:43:16;;;;;;;7.93;4.85;;;11.90;82.10;;;;;;5056311;28;20021;-36
2021/11/06 04:45:42;;;;;;;7.63;5.03;;;11.90;81.90;;;;;;5054767;28;20115;-36
2021/11/06 04:48:08;;;;;;;8.65;4.82;;;11.80;81.90;;;;;;5055823;28;20116;-35
2021/11/06 04:50:33;;;;;;;6.53;4.68;;;11.80;82.00;;;;;;5055118;28;20078;-36
2021/11/06 04:52:59;;;;;;;9.35;5.10;;;11.80;81.90;;;;;;5055517;28;20021;-37
2021/11/06 04:55:25;;;;;;;6.60;5.00;;;11.80;82.00;;;;;;5055844;28;20441;-36
2021/11/06 04:57:51;;;;;;;7.75;5.18;;;11.80;81.80;;;;;;5056006;28;20121;-37
2021/11/06 05:00:17;;;;;;;9.68;4.97;;;11.80;81.50;;;;;;5055668;28;20167;-38
2021/11/06 05:02:43;;;;;;;8.00;5.18;;;11.80;81.00;;;;;;5054926;28;20025;-36
2021/11/06 05:05:09;;;;;;;9.02;5.25;;;11.70;81.10;;;;;;5056179;28;20033;-38
2021/11/06 05:07:35;;;;;;;7.07;5.53;;;11.70;81.00;;;;;;5055314;28;20025;-36
2021/11/06 05:10:00;;;;;;;7.47;5.15;;;11.70;80.80;;;;;;5055989;28;20040;-38
2021/11/06 05:12:26;;;;;;;8.57;5.15;;;11.70;81.00;;;;;;5055275;28;20055;-37
2021/11/06 05:14:52;;;;;;;7.97;5.47;;;11.70;80.80;;;;;;5056019;28;20032;-35
2021/11/06 05:17:19;;;;;;;6.93;5.10;;;11.80;80.30;;;;;;5055353;28;20033;-36
2021/11/06 05:19:46;;;;;;;7.32;5.00;;;11.80;80.10;;;;;;5055787;28;20120;-36
2021/11/06 05:22:12;;;;;;;8.00;5.22;;;11.80;79.40;;;;;;5055300;28;20040;-36
2021/11/06 05:24:38;;;;;;;9.05;5.28;;;11.80;79.20;;;;;;5055845;28;20259;-36
2021/11/06 05:27:05;;;;;;;6.97;5.03;;;11.80;78.60;;;;;;5055195;28;20302;-35
2021/11/06 05:29:31;;;;;;;8.40;5.25;;;11.80;78.50;;;;;;5055795;28;20033;-36
2021/11/06 05:31:56;;;;;;;10.10;5.35;;;11.80;78.70;;;;;;5054994;28;20048;-37
2021/11/06 05:34:22;;;;;;;8.35;5.30;;;11.80;78.70;;;;;;5055591;28;20079;-36
2021/11/06 05:36:48;;;;;;;7.22;4.70;;;11.70;78.50;;;;;;5055454;28;20112;-35
2021/11/06 05:39:13;;;;;;;10.93;4.57;;;11.70;78.30;;;;;;5055856;28;20407;-35
2021/11/06 05:41:39;;;;;;;7.07;4.50;;;11.70;77.60;;;;;;5055124;28;20029;-37
2021/11/06 05:44:05;;;;;;;7.03;4.80;;;11.70;76.70;;;;;;5054595;28;20041;-35
2021/11/06 05:46:31;;;;;;;6.00;4.47;;;11.60;76.50;;;;;;5054902;28;20044;-36
2021/11/06 05:48:56;;;;;;;11.23;4.90;;;11.60;76.10;;;;;;5055409;28;20163;-36
2021/11/06 05:51:23;;;;;;;8.35;4.57;;;11.60;76.70;;;;;;5055004;28;20032;-38
2021/11/06 05:53:49;;;;;;;6.25;4.57;;;11.50;75.90;;;;;;5055245;28;20037;-36
2021/11/06 05:56:15;;;;;;;6.97;4.10;;;11.50;75.80;;;;;;5054747;28;20045;-35
2021/11/06 05:58:42;;;;;;;6.15;3.97;;;11.40;76.00;;;;;;5055165;28;20040;-36
2021/11/06 06:01:07;;;;;;;6.68;4.22;;;11.40;75.90;;;;;;5055005;28;20021;-36
2021/11/06 06:03:33;;;;;;;10.85;4.03;;;11.40;75.80;;;;;;5054833;28;20033;-35
2021/11/06 06:05:59;;;;;;;4.45;3.60;;;11.40;75.80;;;;;;5054852;28;20032;-35
2021/11/06 06:08:26;;;;;;;7.03;4.13;;;11.40;75.50;;;;;;5054719;28;20021;-36
2021/11/06 06:10:52;;;;;;;7.45;4.18;;;11.40;75.80;;;;;;5054965;28;20025;-36
2021/11/06 06:13:17;;;;;;;7.20;4.03;;;11.40;75.70;;;;;;5056688;28;20032;-37
2021/11/06 06:15:43;;;;;;;5.43;3.80;;;11.40;75.90;;;;;;5058956;28;20028;-36
2021/11/06 06:18:09;;;;;;;5.75;4.00;;;11.30;76.00;;;;;;5051807;28;20317;-36
2021/11/06 06:20:34;;;;;;;5.75;4.38;;;11.30;76.00;;;;;;5041910;28;20433;-35
2021/11/06 06:23:00;;;;;;;5.45;4.20;;;11.30;76.30;;;;;;5038338;28;20065;-36
2021/11/06 06:25:27;;;;;;;5.35;3.65;;;11.30;76.20;;;;;;5038825;28;20034;-36
2021/11/06 06:27:53;;;;;;;7.70;5.10;;;11.30;75.90;;;;;;5038061;28;20025;-37
2021/11/06 06:30:19;;;;;;;6.20;4.18;;;11.30;76.10;;;;;;5038821;28;20116;-36
2021/11/06 06:32:45;;;;;;;5.85;3.88;;;11.30;76.20;;;;;;5038232;28;20033;-36
2021/11/06 06:35:14;;;;;;;5.32;3.63;;;11.40;76.50;;;;;;5038862;28;20033;-37
2021/11/06 06:37:40;;;;;;;7.57;4.80;;;11.40;76.70;;;;;;5038359;28;20037;-37
2021/11/06 06:40:07;;;;;;;6.43;4.75;;;11.40;76.70;;;;;;5038591;28;20306;-35
2021/11/06 06:42:33;;;;;;;8.88;4.80;;;11.40;76.60;;;;;;5037912;28;20310;-37
2021/11/06 06:44:59;;;;;;;8.52;5.85;;;11.40;76.70;;;;;;5038541;28;20033;-37
2021/11/06 06:47:24;;;;;;;6.75;3.95;;;11.40;77.00;;;;;;5038075;28;20025;-38
2021/11/06 06:49:50;;;;;;;5.97;4.25;;;11.40;76.40;;;;;;5038534;28;20033;-36
2021/11/06 06:52:17;;;;;;;6.22;4.15;;;11.40;76.40;;;;;;5037569;28;20385;-36
2021/11/06 06:54:42;;;;;;;5.45;4.03;;;11.50;76.20;;;;;;5037790;28;20129;-36
2021/11/06 06:57:08;;;;;;;7.68;5.05;;;11.50;76.10;;;;;;5037653;28;20533;-36
2021/11/06 06:59:35;;;;;;;14.95;9.85;;;11.50;75.90;;;;;;5037972;28;20048;-36
2021/11/06 07:02:05;;;;;;;6.85;4.28;;;11.50;76.00;;;;;;5038021;28;20099;-36
2021/11/06 07:04:31;;;;;;;8.38;4.60;;;11.50;76.00;;;;;;5038086;28;20090;-37
2021/11/06 07:06:56;;;;;;;5.53;4.00;;;11.50;76.10;;;;;;5037492;28;20033;-37
2021/11/06 07:09:23;;;;;;;7.18;5.00;;;11.50;76.20;;;;;;5035617;28;20114;-38
2021/11/06 07:11:49;;;;;;;6.53;4.30;;;11.50;76.40;;;;;;5056970;28;20013;-38
2021/11/06 07:14:16;;;;;;;6.47;4.95;;;11.50;76.60;;;;;;5057399;28;20029;-36
2021/11/06 07:16:45;;;;;;;10.63;4.72;;;11.60;76.80;;;;;;5056983;28;20283;-38
2021/11/06 07:19:11;;;;;;;7.25;4.47;;;11.60;77.00;;;;;;5057344;28;20299;-36
2021/11/06 07:21:38;;;;;;;20.80;10.20;;;11.60;76.60;;;;;;5056873;28;20032;-35
2021/11/06 07:24:04;;;;;;;7.72;3.80;;;11.60;76.60;;;;;;5056541;28;20468;-37
2021/11/06 07:26:30;;;;;;;6.32;4.03;;;11.70;76.60;;;;;;5056715;28;20031;-37
2021/11/06 07:28:57;;;;;;;5.93;4.60;;;11.70;75.60;;;;;;5057384;28;20403;-35
2021/11/06 07:31:22;;;;;;;6.28;4.00;;;11.60;75.50;;;;;;5056480;28;20445;-35
2021/11/06 07:33:49;;;;;;;5.55;4.22;;;11.60;75.70;;;;;;5057123;28;20059;-35
2021/11/06 07:36:15;;;;;;;7.93;4.22;;;11.70;75.90;;;;;;5056922;28;20025;-37
2021/11/06 07:38:41;;;;;;;5.93;4.35;;;11.70;75.80;;;;;;5056876;28;20029;-35
2021/11/06 07:41:07;;;;;;;5.40;3.97;;;11.70;75.60;;;;;;5056535;28;20490;-37
2021/11/06 07:43:36;;;;;;;9.63;4.38;;;11.70;75.10;;;;;;5056962;28;20420;-36
2021/11/06 07:46:02;;;;;;;5.22;4.10;;;11.70;75.10;;;;;;5056427;28;20313;-39
2021/11/06 07:48:28;;;;;;;7.72;4.00;;;11.80;75.20;;;;;;5057031;28;20279;-35
2021/11/06 07:50:54;;;;;;;12.95;7.97;;;11.80;75.30;;;;;;5050025;28;20032;-37
2021/11/06 07:53:20;;;;;;;6.13;4.22;;;11.80;75.30;;;;;;5056047;28;20017;-35
2021/11/06 07:55:45;;;;;;;6.63;4.25;;;11.90;74.70;;;;;;5056355;28;20037;-35
2021/11/06 07:58:13;;;;;;;16.58;4.88;;;11.90;74.50;;;;;;5056179;28;20028;-35
2021/11/06 08:00:39;;;;;;;7.45;4.63;;;11.90;74.10;;;;;;5056825;28;20323;-38
2021/11/06 08:03:05;;;;;;;8.52;4.75;;;11.90;73.60;;;;;;5055722;28;20029;-38
2021/11/06 08:05:31;;;;;;;5.85;4.20;;;11.90;73.30;;;;;;5049926;28;20436;-38
2021/11/06 08:07:57;;;;;;;15.73;5.28;;;12.00;73.40;;;;;;5036081;28;20029;-38
2021/11/06 08:10:23;;;;;;;12.18;5.20;;;12.00;73.20;;;;;;5036797;28;20083;-36
2021/11/06 08:12:49;;;;;;;12.13;5.22;;;12.00;73.30;;;;;;5036249;28;20360;-38
2021/11/06 08:15:16;;;;;;;7.35;4.45;;;12.00;73.40;;;;;;5046103;28;20033;-34
2021/11/06 08:17:42;;;;;;;8.82;5.78;;;12.00;74.00;;;;;;5037511;28;20071;-36
2021/11/06 08:20:09;;;;;;;8.23;6.10;;;12.10;73.80;;;;;;5036695;28;20123;-35
2021/11/06 08:22:36;;;;;;;7.07;5.07;;;12.10;73.70;;;;;;5036317;28;20026;-37
2021/11/06 08:25:05;;;;;;;10.32;5.40;;;12.20;73.40;;;;;;5035886;28;20137;-36
2021/11/06 08:27:31;;;;;;;8.75;4.82;;;12.20;73.10;;;;;;5035877;28;20116;-38
2021/11/06 08:29:57;;;;;;;7.13;4.68;;;12.30;72.60;;;;;;5036367;28;20116;-37
2021/11/06 08:32:22;;;;;;;7.63;5.57;;;12.30;72.50;;;;;;5035642;28;20020;-35
2021/11/06 08:34:48;;;;;;;4.93;3.85;;;12.40;72.30;;;;;;5036347;28;20034;-35
2021/11/06 08:37:14;;;;;;;6.35;4.63;;;12.40;71.70;;;;;;5035141;28;20421;-37
2021/11/06 08:39:40;;;;;;;6.28;4.35;;;12.30;71.50;;;;;;5036122;28;20454;-36
2021/11/06 08:42:06;;;;;;;7.75;4.95;;;12.30;71.30;;;;;;5035730;28;20028;-36
2021/11/06 08:44:32;;;;;;;8.35;4.90;;;12.30;71.60;;;;;;5035975;28;20029;-36
2021/11/06 08:46:57;;;;;;;11.93;4.57;;;12.30;70.90;;;;;;5035494;28;20022;-36
2021/11/06 08:49:24;;;;;;;11.30;4.95;;;12.20;70.90;;;;;;5036086;28;20421;-35
2021/11/06 08:51:56;;;;;;;8.02;5.13;;;12.20;71.10;;;;;;5035526;28;20406;-36
2021/11/06 08:54:22;;;;;;;15.82;5.85;;;12.20;71.70;;;;;;5035679;28;20143;-37
2021/11/06 08:56:48;;;;;;;16.45;5.32;;;12.20;71.80;;;;;;5035589;28;20029;-35
2021/11/06 08:59:15;;;;;;;8.55;4.80;;;12.30;71.50;;;;;;5045265;28;20321;-38
2021/11/06 09:01:42;;;;;;;7.90;4.88;;;12.30;71.10;;;;;;5055250;28;20036;-38
2021/11/06 09:04:07;;;;;;;8.40;5.20;;;12.30;70.80;;;;;;5055533;28;20049;-35
2021/11/06 09:06:34;;;;;;;10.85;6.25;;;12.40;71.10;;;;;;5054871;28;20032;-37
2021/11/06 09:09:06;;;;;;;8.75;5.40;;;12.50;71.40;;;;;;5055464;28;20119;-36
2021/11/06 09:11:32;;;;;;;8.65;5.63;;;12.60;70.60;;;;;;5054971;28;20032;-36
2021/11/06 09:13:59;;;;;;;16.88;5.90;;;12.70;70.60;;;;;;5055041;28;20108;-38
2021/11/06 09:16:25;;;;;;;10.55;5.80;;;12.80;70.10;;;;;;5054947;28;20025;-37
2021/11/06 09:18:52;;;;;;;8.35;5.32;;;12.90;69.20;;;;;;5055104;28;20037;-35
2021/11/06 09:21:20;;;;;;;7.97;5.13;;;12.90;68.80;;;;;;5055158;28;20372;-35
2021/11/06 09:23:50;;;;;;;10.48;5.90;;;13.00;68.50;;;;;;5053700;28;20430;-37
2021/11/06 09:26:16;;;;;;;10.65;6.40;;;13.10;68.40;;;;;;5054882;28;20409;-35
2021/11/06 09:28:42;;;;;;;11.70;6.05;;;13.10;67.70;;;;;;5053881;28;20333;-37
2021/11/06 09:31:10;;;;;;;12.45;7.03;;;13.10;67.80;;;;;;5054678;28;20063;-37
2021/11/06 09:33:36;;;;;;;8.60;6.15;;;13.20;67.20;;;;;;5054816;28;20412;-37
2021/11/06 09:36:02;;;;;;;11.02;6.25;;;13.10;66.70;;;;;;5054510;28;20032;-38
2021/11/06 09:38:28;;;;;;;9.32;6.15;;;13.10;66.90;;;;;;5054753;28;20404;-38
2021/11/06 09:40:53;;;;;;;15.55;6.45;;;13.10;66.80;;;;;;5054576;28;20068;-38
2021/11/06 09:43:19;;;;;;;10.68;6.15;;;13.20;66.80;;;;;;5054481;28;20037;-35
2021/11/06 09:45:45;;;;;;;15.93;6.80;;;13.20;66.40;;;;;;5054991;28;20566;-36
2021/11/06 09:48:11;;;;;;;11.35;6.47;;;13.20;66.50;;;;;;5056240;28;20033;-37
2021/11/06 09:50:37;;;;;;;9.07;6.22;;;13.20;66.10;;;;;;5058967;28;20348;-35
2021/11/06 09:53:03;;;;;;;9.65;6.47;;;13.20;65.60;;;;;;5058896;28;20029;-35
2021/11/06 09:55:32;;;;;;;13.43;7.03;;;13.30;65.90;;;;;;5058766;28;20053;-38
2021/11/06 09:57:58;;;;;;;12.43;6.75;;;13.40;65.80;;;;;;5058169;28;20040;-35
2021/11/06 10:00:24;;;;;;;12.43;7.25;;;13.40;65.30;;;;;;5059345;28;20041;-38
2021/11/06 10:02:54;;;;;;;11.38;6.80;;;13.40;65.30;;;;;;5058413;28;20036;-38
2021/11/06 10:05:58;;;;;;;11.38;6.50;;;13.50;65.00;;;;;;5058927;28;20377;-38
2021/11/06 10:08:39;;;;;;;18.13;6.28;;;13.50;65.10;;;;;;5058087;28;20039;-36
2021/11/06 10:11:17;;;;;;;10.07;5.85;;;13.50;65.50;;;;;;5057328;28;20028;-36
2021/11/06 10:14:05;;;;;;;7.90;5.95;;;13.50;64.40;;;;;;5055781;28;20037;-37
2021/11/06 10:16:39;;;;;;;7.45;5.72;;;13.50;63.70;;;;;;5058053;28;20065;-35
2021/11/06 10:19:18;;;;;;;7.70;5.50;;;13.60;64.20;;;;;;5058161;28;20033;-38
2021/11/06 10:22:03;;;;;;;11.48;5.78;;;13.60;64.30;;;;;;5057987;28;20021;-37
2021/11/06 10:24:51;;;;;;;9.45;6.55;;;13.60;64.00;;;;;;5051993;28;20033;-38
2021/11/06 10:27:22;;;;;;;12.18;5.65;;;13.60;63.90;;;;;;5037947;28;20449;-38
2021/11/06 10:30:16;;;;;;;8.65;5.70;;;13.60;63.60;;;;;;5038165;28;20509;-35
2021/11/06 10:32:44;;;;;;;13.38;5.93;;;13.60;63.60;;;;;;5036669;28;20024;-36
2021/11/06 10:35:23;;;;;;;10.10;4.93;;;13.60;64.10;;;;;;5038157;28;20044;-40
2021/11/06 10:37:58;;;;;;;20.63;7.03;;;13.70;63.20;;;;;;5037863;28;20374;-37
2021/11/06 10:40:30;;;;;;;7.75;5.22;;;13.70;62.70;;;;;;5038144;28;20033;-37
2021/11/06 10:42:57;;;;;;;12.52;6.45;;;13.70;62.40;;;;;;5037853;28;20034;-36
2021/11/06 10:45:26;;;;;;;19.58;5.60;;;13.80;63.00;;;;;;5038087;28;20055;-36
2021/11/06 10:48:05;;;;;;;7.38;5.25;;;13.90;62.30;;;;;;5036820;28;20326;-39
2021/11/06 10:50:41;;;;;;;9.60;5.15;;;13.90;61.80;;;;;;5037850;28;20068;-35
2021/11/06 10:53:08;;;;;;;14.05;5.13;;;14.00;61.00;;;;;;5037498;28;20031;-37
2021/11/06 10:55:39;;;;;;;11.93;6.30;;;14.00;61.00;;;;;;5037874;28;20344;-38
2021/11/06 10:58:25;;;;;;;8.63;6.00;;;14.00;60.80;;;;;;5037856;28;20053;-38
2021/11/06 11:00:56;;;;;;;12.52;6.18;;;14.10;60.40;;;;;;5035670;28;20084;-36
2021/11/06 11:03:33;;;;;;;8.57;5.55;;;14.10;59.60;;;;;;5037443;28;20307;-35
2021/11/06 11:06:00;;;;;;;16.55;5.95;;;14.10;60.30;;;;;;5037551;28;20037;-35
2021/11/06 11:08:28;;;;;;;11.55;5.25;;;14.10;59.40;;;;;;5037762;28;20057;-37
2021/11/06 11:11:06;;;;;;;5.85;4.43;;;14.10;58.70;;;;;;5037936;28;20364;-37
2021/11/06 11:13:32;;;;;;;7.45;4.78;;;14.10;58.40;;;;;;5037609;28;20052;-38
2021/11/06 11:16:14;;;;;;;21.42;5.60;;;14.00;58.50;;;;;;5037691;28;20321;-35
2021/11/06 11:18:40;;;;;;;8.27;4.60;;;14.00;59.20;;;;;;5037399;28;20036;-36
2021/11/06 11:21:10;;;;;;;7.30;4.50;;;14.10;58.50;;;;;;5036515;28;20099;-38
2021/11/06 11:23:38;;;;;;;6.90;4.38;;;14.10;58.30;;;;;;5037264;28;20025;-38
2021/11/06 11:26:03;;;;;;;13.93;5.50;;;14.10;57.60;;;;;;5037012;28;20117;-37
2021/11/06 11:28:29;;;;;;;11.65;4.18;;;14.20;58.00;;;;;;5037428;28;20104;-36
2021/11/06 11:30:56;;;;;;;17.63;4.70;;;14.10;57.50;;;;;;5037438;28;20029;-38
2021/11/06 11:33:21;;;;;;;41.30;6.78;;;14.10;58.00;;;;;;5036808;28;20381;-36
2021/11/06 11:35:48;;;;;;;34.75;5.82;;;14.10;58.30;;;;;;5037112;28;20069;-38
2021/11/06 11:38:14;;;;;;;34.40;11.40;;;14.10;58.10;;;;;;5036608;28;20029;-38
2021/11/06 11:40:51;;;;;;;28.05;6.05;;;14.10;58.30;;;;;;5036825;28;20037;-38
2021/11/06 11:43:32;;;;;;;13.57;5.60;;;14.10;58.50;;;;;;5036707;28;20021;-35
2021/11/06 11:46:05;;;;;;;;;;;14.10;58.90;;;;;;5037391;28;20134;-35
2021/11/06 11:48:32;;;;;;;6.63;5.10;;;14.10;59.90;;;;;;5036753;28;19909;-35
2021/11/06 11:51:02;;;;;;;15.38;5.18;;;14.10;58.40;;;;;;5036882;28;20034;-38
2021/11/06 11:53:34;;;;;;;9.40;5.30;;;14.10;57.90;;;;;;5036543;28;20064;-38
2021/11/06 11:56:13;;;;;;;20.25;5.75;;;14.10;58.30;;;;;;5036505;28;20054;-36
2021/11/06 11:58:40;;;;;;;13.30;4.57;;;14.10;57.90;;;;;;5036779;28;20040;-38
2021/11/06 12:01:07;;;;;;;8.90;5.30;;;14.10;57.90;;;;;;5036497;28;20057;-37
2021/11/06 12:03:45;;;;;;;14.88;5.57;;;14.10;57.70;;;;;;5036853;28;20025;-36
2021/11/06 12:06:37;;;;;;;11.20;5.20;;;14.10;57.50;;;;;;5035060;28;20029;-37
2021/11/06 12:09:12;;;;;;;9.95;4.95;;;14.10;57.80;;;;;;5036921;28;20037;-36
2021/11/06 12:11:47;;;;;;;9.48;4.45;;;14.20;58.10;;;;;;5036355;28;20060;-36
2021/11/06 12:14:24;;;;;;;11.90;5.05;;;14.30;57.30;;;;;;5036614;28;20406;-37
2021/11/06 12:16:57;;;;;;;7.10;4.82;;;14.40;57.40;;;;;;5035887;28;20045;-38
2021/11/06 12:19:33;;;;;;;10.15;4.90;;;14.50;57.00;;;;;;5036527;28;20026;-38
2021/11/06 12:22:11;;;;;;;9.00;4.95;;;14.60;57.40;;;;;;5036236;28;20505;-38
2021/11/06 12:24:37;;;;;;;6.93;4.25;;;14.70;56.60;;;;;;5036218;28;20076;-38
2021/11/06 12:27:07;;;;;;;8.38;4.78;;;14.80;56.60;;;;;;5035716;28;20034;-38
2021/11/06 12:29:48;;;;;;;9.38;5.15;;;14.80;56.20;;;;;;5036008;28;20025;-38
2021/11/06 12:32:27;;;;;;;9.32;5.10;;;14.80;56.30;;;;;;5035589;28;20441;-38
2021/11/06 12:35:16;;;;;;;8.60;5.10;;;14.90;56.40;;;;;;5036027;28;20037;-39
2021/11/06 12:37:43;;;;;;;9.55;4.97;;;15.00;56.30;;;;;;5035501;28;20038;-36
2021/11/06 12:40:14;;;;;;;11.02;5.18;;;15.10;55.90;;;;;;5036001;28;20105;-39